< Typhoon 200613 2006 Season Typhoon 200615 >
Typhoon 200614 (YAGI)
General InformationTrack Information on Google MapsDetailed Wind InformationAccess Analytics MapList of All Images || NewsDisaster Info.WeblogTrackbackTyphoon FrontResourceGoogle EarthGE AnimationAtom FeedGeoJSON
Detalied Best Track (Time Zone = UTC)
Year Month Day Hour Lat. Long. Pressure (hPa) Wind (kt) Class Image Chart
2006 9 16 12 19.8 156.3 1008 0 2 Image Chart
2006 9 16 18 20.1 156.6 1006 0 2 Image Chart
2006 9 17 00 20.4 156.9 1006 0 2 Image Chart
2006 9 17 06 20.6 157.5 1002 35 3 Image Chart
2006 9 17 12 20.6 157.8 1000 35 3 Image Chart
2006 9 17 18 20.6 158.2 994 40 3 Image Chart
2006 9 18 00 20.5 158.6 990 45 3 Image Chart
2006 9 18 06 20.5 158.9 990 45 3 Image Chart
2006 9 18 12 20.4 159.1 985 50 4 Image Chart
2006 9 18 18 20.3 159.2 980 55 4 Image Chart
2006 9 19 00 20.1 159.1 970 65 5 Image Chart
2006 9 19 06 20.0 158.6 960 75 5 Image Chart
2006 9 19 12 20.0 157.8 960 75 5 Image Chart
2006 9 19 18 19.8 156.8 950 85 5 Image Chart
2006 9 20 00 19.7 155.6 940 90 5 Image Chart
2006 9 20 06 19.6 154.1 940 90 5 Image Chart
2006 9 20 12 19.6 152.5 940 90 5 Image Chart
2006 9 20 18 19.6 150.8 940 90 5 Image Chart
2006 9 21 00 20.1 149.3 940 90 5 Image Chart
2006 9 21 06 20.7 147.7 930 90 5 Image Chart
2006 9 21 12 21.5 146.2 910 105 5 Image Chart
2006 9 21 18 22.6 144.8 910 105 5 Image Chart
2006 9 22 00 23.7 143.6 915 100 5 Image Chart
2006 9 22 03 24.4 143.0 915 100 5 Image Chart
2006 9 22 06 25.0 142.5 915 100 5 Image Chart
2006 9 22 09 25.5 142.3 915 100 5 Image Chart
2006 9 22 12 26.1 142.1 925 95 5 Image Chart
2006 9 22 15 26.8 141.9 930 90 5 Image Chart
2006 9 22 18 27.3 141.9 940 85 5 Image Chart
2006 9 22 21 28.1 142.1 945 85 5 Image Chart
2006 9 23 00 28.5 142.2 950 80 5 Image Chart
2006 9 23 03 29.2 142.2 950 80 5 Image Chart
2006 9 23 06 30.0 142.6 950 80 5 Image Chart
2006 9 23 12 31.0 143.7 955 75 5 Image Chart
2006 9 23 18 32.1 145.1 955 75 5 Image Chart
2006 9 24 00 33.8 147.0 965 70 5 Image Chart
2006 9 24 06 35.3 149.1 975 60 4 Image Chart
2006 9 24 12 36.4 151.3 980 55 4 Image Chart
2006 9 24 18 38.2 155.1 985 50 4 Image Chart
2006 9 25 00 40.3 159.4 985 50 4 Image Chart
2006 9 25 06 42.0 163.9 984 0 6 Image Chart
2006 9 25 12 43.7 167.3 980 0 6 Image Chart
2006 9 25 18 45.7 170.3 976 0 6 Image Chart
2006 9 26 00 47.6 173.2 972 0 6 Image Chart
2006 9 26 06 48.4 174.8 968 0 6 Image Chart
2006 9 26 12 48.9 176.4 970 0 6 Image Chart
2006 9 26 18 48.6 177.7 974 0 6 Image Chart
2006 9 27 00 48.2 179.7 978 0 6 Image Chart
2006 9 27 06 47.6 182.7 980 0 6 Image Chart
Japan Meteorological Agency Best Track Data | Correction Date : 2006-11-14
< Typhoon 200613 2006 Season Typhoon 200615 >

Help